Trout River, Canada
Current Conditions -  °F | °C
As of 5:09 PM on Thursday 18 Dec 2014 (Local Time) from CYDF Reporting Station
Light Rain Light Rain  
Wind Chill: 25°   Ceiling: 900
Heat Index: 34°   Visibility: 8mi
Dew Point: 32°   Wind: 13mph
Humidity: 93%   Direction: 50°NE
Pressure: 29.69"   Gusts: NA
Location:  49.48°N, 58.12°W
Report Text: CYDF 182009Z 05011KT 8SM -RA BKN009 OVC020 01/00 A2969 RMK SC5SC3 SLP054
Loading
Personal Weather Stations






























Interactive Weather Map New forecast layout! Learn more

10-Day Weather Forecast

Advertisements
Track Severe Weather on mobile